sensor_id;sensor_type;location;lat;lon;timestamp;P1;durP1;ratioP1;P2;durP2;ratioP2
69463;SDS011;56665;41.106;16.688;2022-08-11T00:00:20;6.28;;;4.50;;
69463;SDS011;56665;41.106;16.688;2022-08-11T00:03:34;7.68;;;4.70;;
69463;SDS011;56665;41.106;16.688;2022-08-11T00:06:40;7.07;;;4.70;;
69463;SDS011;56665;41.106;16.688;2022-08-11T00:09:47;8.25;;;4.55;;
69463;SDS011;56665;41.106;16.688;2022-08-11T00:16:03;5.90;;;4.40;;
69463;SDS011;56665;41.106;16.688;2022-08-11T00:19:19;7.10;;;4.78;;
69463;SDS011;56665;41.106;16.688;2022-08-11T00:22:25;6.23;;;4.60;;
69463;SDS011;56665;41.106;16.688;2022-08-11T00:25:30;6.15;;;4.18;;
69463;SDS011;56665;41.106;16.688;2022-08-11T00:28:40;7.03;;;5.00;;
69463;SDS011;56665;41.106;16.688;2022-08-11T00:31:55;7.70;;;4.47;;
69463;SDS011;56665;41.106;16.688;2022-08-11T00:35:03;6.00;;;4.22;;
69463;SDS011;56665;41.106;16.688;2022-08-11T00:38:10;6.80;;;4.20;;
69463;SDS011;56665;41.106;16.688;2022-08-11T00:45:08;6.13;;;4.43;;
69463;SDS011;56665;41.106;16.688;2022-08-11T00:48:44;5.95;;;4.00;;
69463;SDS011;56665;41.106;16.688;2022-08-11T00:56:00;6.63;;;4.00;;
69463;SDS011;56665;41.106;16.688;2022-08-11T00:59:20;6.28;;;4.10;;
69463;SDS011;56665;41.106;16.688;2022-08-11T01:06:20;6.32;;;3.90;;
69463;SDS011;56665;41.106;16.688;2022-08-11T01:16:52;5.28;;;3.85;;
69463;SDS011;56665;41.106;16.688;2022-08-11T01:30:43;7.93;;;3.70;;
69463;SDS011;56665;41.106;16.688;2022-08-11T01:51:16;8.05;;;4.28;;
69463;SDS011;56665;41.106;16.688;2022-08-11T01:54:27;8.30;;;4.07;;
69463;SDS011;56665;41.106;16.688;2022-08-11T02:01:00;6.47;;;4.68;;
69463;SDS011;56665;41.106;16.688;2022-08-11T02:11:00;6.63;;;4.45;;
69463;SDS011;56665;41.106;16.688;2022-08-11T02:14:36;5.88;;;3.85;;
69463;SDS011;56665;41.106;16.688;2022-08-11T02:21:03;6.87;;;4.20;;
69463;SDS011;56665;41.106;16.688;2022-08-11T02:24:34;7.80;;;4.43;;
69463;SDS011;56665;41.106;16.688;2022-08-11T02:27:55;6.50;;;4.13;;
69463;SDS011;56665;41.106;16.688;2022-08-11T02:31:29;7.53;;;4.75;;
69463;SDS011;56665;41.106;16.688;2022-08-11T02:41:57;6.50;;;4.20;;
69463;SDS011;56665;41.106;16.688;2022-08-11T02:45:33;8.80;;;4.07;;
69463;SDS011;56665;41.106;16.688;2022-08-11T02:59:27;6.05;;;4.30;;
69463;SDS011;56665;41.106;16.688;2022-08-11T03:09:53;5.68;;;4.22;;
69463;SDS011;56665;41.106;16.688;2022-08-11T03:13:09;6.60;;;4.20;;
69463;SDS011;56665;41.106;16.688;2022-08-11T03:16:51;6.55;;;4.05;;
69463;SDS011;56665;41.106;16.688;2022-08-11T03:27:07;7.25;;;4.25;;
69463;SDS011;56665;41.106;16.688;2022-08-11T03:30:15;6.93;;;4.30;;
69463;SDS011;56665;41.106;16.688;2022-08-11T03:33:28;8.75;;;4.50;;
69463;SDS011;56665;41.106;16.688;2022-08-11T03:44:22;6.70;;;4.28;;
69463;SDS011;56665;41.106;16.688;2022-08-11T03:50:50;8.05;;;4.30;;
69463;SDS011;56665;41.106;16.688;2022-08-11T03:54:25;8.38;;;4.45;;
69463;SDS011;56665;41.106;16.688;2022-08-11T04:01:28;8.25;;;4.78;;
69463;SDS011;56665;41.106;16.688;2022-08-11T04:32:15;8.18;;;4.10;;
69463;SDS011;56665;41.106;16.688;2022-08-11T04:35:38;9.57;;;4.75;;
69463;SDS011;56665;41.106;16.688;2022-08-11T04:49:53;7.32;;;4.28;;
69463;SDS011;56665;41.106;16.688;2022-08-11T04:57:08;10.47;;;5.23;;
69463;SDS011;56665;41.106;16.688;2022-08-11T05:15:32;8.77;;;4.43;;
69463;SDS011;56665;41.106;16.688;2022-08-11T05:19:07;10.02;;;5.28;;
69463;SDS011;56665;41.106;16.688;2022-08-11T05:22:37;5.75;;;4.32;;
69463;SDS011;56665;41.106;16.688;2022-08-11T05:26:07;7.70;;;4.53;;
69463;SDS011;56665;41.106;16.688;2022-08-11T05:36:35;6.78;;;4.40;;
69463;SDS011;56665;41.106;16.688;2022-08-11T05:39:54;6.70;;;4.40;;
69463;SDS011;56665;41.106;16.688;2022-08-11T05:43:23;8.88;;;4.63;;
69463;SDS011;56665;41.106;16.688;2022-08-11T05:46:46;9.65;;;5.00;;
69463;SDS011;56665;41.106;16.688;2022-08-11T05:50:10;8.23;;;4.70;;
69463;SDS011;56665;41.106;16.688;2022-08-11T05:53:34;6.35;;;4.60;;
69463;SDS011;56665;41.106;16.688;2022-08-11T05:57:03;9.68;;;4.40;;
69463;SDS011;56665;41.106;16.688;2022-08-11T06:00:07;6.78;;;5.18;;
69463;SDS011;56665;41.106;16.688;2022-08-11T06:03:24;9.07;;;4.90;;
69463;SDS011;56665;41.106;16.688;2022-08-11T06:06:30;7.43;;;5.20;;
69463;SDS011;56665;41.106;16.688;2022-08-11T06:09:35;7.20;;;5.05;;
69463;SDS011;56665;41.106;16.688;2022-08-11T06:12:41;8.82;;;5.30;;
69463;SDS011;56665;41.106;16.688;2022-08-11T06:15:47;8.35;;;5.15;;
69463;SDS011;56665;41.106;16.688;2022-08-11T06:18:51;8.88;;;5.05;;
69463;SDS011;56665;41.106;16.688;2022-08-11T06:21:56;6.83;;;4.63;;
69463;SDS011;56665;41.106;16.688;2022-08-11T06:25:00;9.40;;;4.82;;
69463;SDS011;56665;41.106;16.688;2022-08-11T06:28:07;8.70;;;4.82;;
69463;SDS011;56665;41.106;16.688;2022-08-11T06:31:12;7.57;;;4.70;;
69463;SDS011;56665;41.106;16.688;2022-08-11T06:34:26;7.10;;;4.70;;
69463;SDS011;56665;41.106;16.688;2022-08-11T06:41:06;8.07;;;4.70;;
69463;SDS011;56665;41.106;16.688;2022-08-11T06:44:43;5.88;;;4.43;;
69463;SDS011;56665;41.106;16.688;2022-08-11T06:47:56;14.98;;;5.05;;
69463;SDS011;56665;41.106;16.688;2022-08-11T06:51:03;8.52;;;5.10;;
69463;SDS011;56665;41.106;16.688;2022-08-11T06:54:16;9.40;;;4.83;;
69463;SDS011;56665;41.106;16.688;2022-08-11T06:57:21;6.00;;;4.60;;
69463;SDS011;56665;41.106;16.688;2022-08-11T07:00:46;7.18;;;4.50;;
69463;SDS011;56665;41.106;16.688;2022-08-11T07:03:54;5.40;;;4.43;;
69463;SDS011;56665;41.106;16.688;2022-08-11T07:14:54;7.10;;;4.82;;
69463;SDS011;56665;41.106;16.688;2022-08-11T07:18:24;6.88;;;4.75;;
69463;SDS011;56665;41.106;16.688;2022-08-11T07:21:49;6.40;;;4.10;;
69463;SDS011;56665;41.106;16.688;2022-08-11T07:25:14;7.68;;;4.70;;
69463;SDS011;56665;41.106;16.688;2022-08-11T07:28:41;7.93;;;4.33;;
69463;SDS011;56665;41.106;16.688;2022-08-11T07:31:58;7.43;;;4.53;;
69463;SDS011;56665;41.106;16.688;2022-08-11T07:35:11;6.38;;;4.28;;
69463;SDS011;56665;41.106;16.688;2022-08-11T07:38:21;9.32;;;4.70;;
69463;SDS011;56665;41.106;16.688;2022-08-11T07:41:45;6.80;;;4.68;;
69463;SDS011;56665;41.106;16.688;2022-08-11T07:44:50;4.80;;;4.07;;
69463;SDS011;56665;41.106;16.688;2022-08-11T07:48:14;7.13;;;4.88;;
69463;SDS011;56665;41.106;16.688;2022-08-11T07:51:40;6.65;;;4.10;;
69463;SDS011;56665;41.106;16.688;2022-08-11T07:55:05;8.32;;;4.43;;
69463;SDS011;56665;41.106;16.688;2022-08-11T07:58:15;9.93;;;4.57;;
69463;SDS011;56665;41.106;16.688;2022-08-11T08:01:37;5.40;;;4.60;;
69463;SDS011;56665;41.106;16.688;2022-08-11T08:05:00;7.05;;;4.70;;
69463;SDS011;56665;41.106;16.688;2022-08-11T08:08:22;6.65;;;5.00;;
69463;SDS011;56665;41.106;16.688;2022-08-11T08:11:46;7.53;;;5.50;;
69463;SDS011;56665;41.106;16.688;2022-08-11T08:15:10;6.68;;;5.05;;
69463;SDS011;56665;41.106;16.688;2022-08-11T08:18:34;5.90;;;5.37;;
69463;SDS011;56665;41.106;16.688;2022-08-11T08:21:39;7.90;;;5.32;;
69463;SDS011;56665;41.106;16.688;2022-08-11T08:24:44;5.68;;;4.88;;
69463;SDS011;56665;41.106;16.688;2022-08-11T08:27:49;7.30;;;4.80;;
69463;SDS011;56665;41.106;16.688;2022-08-11T08:30:54;10.35;;;5.38;;
69463;SDS011;56665;41.106;16.688;2022-08-11T08:34:01;8.87;;;5.30;;
69463;SDS011;56665;41.106;16.688;2022-08-11T08:37:07;6.88;;;5.00;;
69463;SDS011;56665;41.106;16.688;2022-08-11T08:40:12;8.68;;;4.88;;
69463;SDS011;56665;41.106;16.688;2022-08-11T08:43:17;10.35;;;5.13;;
69463;SDS011;56665;41.106;16.688;2022-08-11T08:46:21;6.63;;;5.03;;
69463;SDS011;56665;41.106;16.688;2022-08-11T08:49:34;7.37;;;4.83;;
69463;SDS011;56665;41.106;16.688;2022-08-11T08:52:44;5.97;;;4.97;;
69463;SDS011;56665;41.106;16.688;2022-08-11T08:56:11;5.70;;;5.10;;
69463;SDS011;56665;41.106;16.688;2022-08-11T08:59:19;9.82;;;5.00;;
69463;SDS011;56665;41.106;16.688;2022-08-11T09:02:25;7.20;;;5.22;;
69463;SDS011;56665;41.106;16.688;2022-08-11T09:05:31;6.87;;;5.07;;
69463;SDS011;56665;41.106;16.688;2022-08-11T09:08:36;6.38;;;5.32;;
69463;SDS011;56665;41.106;16.688;2022-08-11T09:11:43;7.40;;;5.28;;
69463;SDS011;56665;41.106;16.688;2022-08-11T09:14:53;7.72;;;5.30;;
69463;SDS011;56665;41.106;16.688;2022-08-11T09:18:10;7.10;;;5.28;;
69463;SDS011;56665;41.106;16.688;2022-08-11T09:21:15;7.30;;;5.27;;
69463;SDS011;56665;41.106;16.688;2022-08-11T09:24:22;7.10;;;5.68;;
69463;SDS011;56665;41.106;16.688;2022-08-11T09:27:45;6.55;;;5.25;;
69463;SDS011;56665;41.106;16.688;2022-08-11T09:30:49;6.93;;;4.97;;
69463;SDS011;56665;41.106;16.688;2022-08-11T09:33:57;6.05;;;5.13;;
69463;SDS011;56665;41.106;16.688;2022-08-11T09:37:02;7.63;;;5.27;;
69463;SDS011;56665;41.106;16.688;2022-08-11T09:40:26;5.35;;;4.38;;
69463;SDS011;56665;41.106;16.688;2022-08-11T09:43:37;8.25;;;4.85;;
69463;SDS011;56665;41.106;16.688;2022-08-11T09:47:01;6.88;;;5.10;;
69463;SDS011;56665;41.106;16.688;2022-08-11T09:50:07;7.18;;;5.70;;
69463;SDS011;56665;41.106;16.688;2022-08-11T09:53:11;6.27;;;5.23;;
69463;SDS011;56665;41.106;16.688;2022-08-11T09:56:19;6.00;;;4.85;;
69463;SDS011;56665;41.106;16.688;2022-08-11T09:59:43;7.22;;;4.50;;
69463;SDS011;56665;41.106;16.688;2022-08-11T10:02:47;10.32;;;5.20;;
69463;SDS011;56665;41.106;16.688;2022-08-11T10:05:55;11.00;;;8.40;;
69463;SDS011;56665;41.106;16.688;2022-08-11T10:09:22;12.97;;;8.03;;
69463;SDS011;56665;41.106;16.688;2022-08-11T10:12:34;9.35;;;7.53;;
69463;SDS011;56665;41.106;16.688;2022-08-11T10:15:43;11.52;;;6.10;;
69463;SDS011;56665;41.106;16.688;2022-08-11T10:18:50;7.03;;;5.20;;
69463;SDS011;56665;41.106;16.688;2022-08-11T10:21:54;9.23;;;6.95;;
69463;SDS011;56665;41.106;16.688;2022-08-11T10:25:16;6.80;;;5.10;;
69463;SDS011;56665;41.106;16.688;2022-08-11T10:28:39;12.13;;;5.88;;
69463;SDS011;56665;41.106;16.688;2022-08-11T10:31:43;7.95;;;5.90;;
69463;SDS011;56665;41.106;16.688;2022-08-11T10:35:07;7.82;;;5.88;;
69463;SDS011;56665;41.106;16.688;2022-08-11T10:38:14;9.20;;;5.95;;
69463;SDS011;56665;41.106;16.688;2022-08-11T10:41:20;8.50;;;5.10;;
69463;SDS011;56665;41.106;16.688;2022-08-11T10:44:44;7.93;;;5.07;;
69463;SDS011;56665;41.106;16.688;2022-08-11T10:47:52;7.22;;;4.60;;
69463;SDS011;56665;41.106;16.688;2022-08-11T10:50:57;8.02;;;4.75;;
69463;SDS011;56665;41.106;16.688;2022-08-11T10:54:20;9.13;;;4.97;;
69463;SDS011;56665;41.106;16.688;2022-08-11T10:57:43;6.30;;;4.33;;
69463;SDS011;56665;41.106;16.688;2022-08-11T11:01:06;5.65;;;4.90;;
69463;SDS011;56665;41.106;16.688;2022-08-11T11:04:13;8.07;;;4.70;;
69463;SDS011;56665;41.106;16.688;2022-08-11T11:07:23;6.32;;;4.50;;
69463;SDS011;56665;41.106;16.688;2022-08-11T11:10:33;7.35;;;4.80;;
69463;SDS011;56665;41.106;16.688;2022-08-11T11:13:37;5.70;;;4.33;;
69463;SDS011;56665;41.106;16.688;2022-08-11T11:17:02;6.13;;;4.70;;
69463;SDS011;56665;41.106;16.688;2022-08-11T11:20:17;10.32;;;5.10;;
69463;SDS011;56665;41.106;16.688;2022-08-11T11:23:27;6.20;;;4.68;;
69463;SDS011;56665;41.106;16.688;2022-08-11T11:30:11;6.83;;;4.70;;
69463;SDS011;56665;41.106;16.688;2022-08-11T11:33:19;6.95;;;4.78;;
69463;SDS011;56665;41.106;16.688;2022-08-11T11:36:47;7.93;;;4.97;;
69463;SDS011;56665;41.106;16.688;2022-08-11T11:39:53;8.63;;;4.60;;
69463;SDS011;56665;41.106;16.688;2022-08-11T11:42:59;6.00;;;4.68;;
69463;SDS011;56665;41.106;16.688;2022-08-11T11:46:04;6.90;;;4.67;;
69463;SDS011;56665;41.106;16.688;2022-08-11T11:49:09;6.63;;;5.10;;
69463;SDS011;56665;41.106;16.688;2022-08-11T11:52:15;7.53;;;4.85;;
69463;SDS011;56665;41.106;16.688;2022-08-11T11:55:22;10.18;;;4.97;;
69463;SDS011;56665;41.106;16.688;2022-08-11T11:58:28;7.57;;;4.70;;
69463;SDS011;56665;41.106;16.688;2022-08-11T12:01:50;5.93;;;4.90;;
69463;SDS011;56665;41.106;16.688;2022-08-11T12:04:54;6.55;;;4.53;;
69463;SDS011;56665;41.106;16.688;2022-08-11T12:08:00;7.55;;;4.95;;
69463;SDS011;56665;41.106;16.688;2022-08-11T12:11:22;6.72;;;4.45;;
69463;SDS011;56665;41.106;16.688;2022-08-11T12:14:46;8.80;;;5.18;;
69463;SDS011;56665;41.106;16.688;2022-08-11T12:17:51;6.67;;;4.60;;
69463;SDS011;56665;41.106;16.688;2022-08-11T12:20:55;5.78;;;4.50;;
69463;SDS011;56665;41.106;16.688;2022-08-11T12:23:59;7.55;;;4.38;;
69463;SDS011;56665;41.106;16.688;2022-08-11T12:27:23;7.30;;;4.93;;
69463;SDS011;56665;41.106;16.688;2022-08-11T12:30:29;6.43;;;4.72;;
69463;SDS011;56665;41.106;16.688;2022-08-11T12:33:33;7.67;;;4.50;;
69463;SDS011;56665;41.106;16.688;2022-08-11T12:36:43;8.82;;;4.97;;
69463;SDS011;56665;41.106;16.688;2022-08-11T12:39:52;7.65;;;4.50;;
69463;SDS011;56665;41.106;16.688;2022-08-11T12:43:25;8.40;;;4.80;;
69463;SDS011;56665;41.106;16.688;2022-08-11T12:46:51;9.23;;;5.05;;
69463;SDS011;56665;41.106;16.688;2022-08-11T12:49:57;8.20;;;4.97;;
69463;SDS011;56665;41.106;16.688;2022-08-11T12:53:23;7.93;;;4.90;;
69463;SDS011;56665;41.106;16.688;2022-08-11T12:56:36;9.75;;;4.93;;
69463;SDS011;56665;41.106;16.688;2022-08-11T13:00:01;8.10;;;4.72;;
69463;SDS011;56665;41.106;16.688;2022-08-11T13:03:25;7.40;;;4.82;;
69463;SDS011;56665;41.106;16.688;2022-08-11T13:06:47;7.47;;;5.00;;
69463;SDS011;56665;41.106;16.688;2022-08-11T13:09:54;7.85;;;5.22;;
69463;SDS011;56665;41.106;16.688;2022-08-11T13:12:58;7.13;;;5.28;;
69463;SDS011;56665;41.106;16.688;2022-08-11T13:16:02;7.55;;;5.30;;
69463;SDS011;56665;41.106;16.688;2022-08-11T13:19:07;7.35;;;5.95;;
69463;SDS011;56665;41.106;16.688;2022-08-11T13:22:15;9.33;;;6.17;;
69463;SDS011;56665;41.106;16.688;2022-08-11T13:25:21;8.43;;;5.97;;
69463;SDS011;56665;41.106;16.688;2022-08-11T13:28:29;8.60;;;6.07;;
69463;SDS011;56665;41.106;16.688;2022-08-11T13:31:34;8.40;;;5.93;;
69463;SDS011;56665;41.106;16.688;2022-08-11T13:34:40;9.57;;;6.43;;
69463;SDS011;56665;41.106;16.688;2022-08-11T13:37:45;11.13;;;6.00;;
69463;SDS011;56665;41.106;16.688;2022-08-11T13:40:50;8.40;;;6.35;;
69463;SDS011;56665;41.106;16.688;2022-08-11T13:43:56;8.82;;;6.53;;
69463;SDS011;56665;41.106;16.688;2022-08-11T13:47:01;8.85;;;6.55;;
69463;SDS011;56665;41.106;16.688;2022-08-11T13:50:07;7.45;;;6.03;;
69463;SDS011;56665;41.106;16.688;2022-08-11T13:53:15;8.73;;;6.03;;
69463;SDS011;56665;41.106;16.688;2022-08-11T13:56:23;8.82;;;6.40;;
69463;SDS011;56665;41.106;16.688;2022-08-11T13:59:28;9.57;;;6.97;;
69463;SDS011;56665;41.106;16.688;2022-08-11T14:02:33;8.40;;;6.40;;
69463;SDS011;56665;41.106;16.688;2022-08-11T14:05:45;9.43;;;6.95;;
69463;SDS011;56665;41.106;16.688;2022-08-11T14:08:51;9.07;;;7.00;;
69463;SDS011;56665;41.106;16.688;2022-08-11T14:11:57;10.40;;;6.40;;
69463;SDS011;56665;41.106;16.688;2022-08-11T14:15:24;8.40;;;5.97;;
69463;SDS011;56665;41.106;16.688;2022-08-11T14:18:36;9.00;;;6.78;;
69463;SDS011;56665;41.106;16.688;2022-08-11T14:21:45;9.85;;;6.60;;
69463;SDS011;56665;41.106;16.688;2022-08-11T14:25:09;10.47;;;6.60;;
69463;SDS011;56665;41.106;16.688;2022-08-11T14:28:14;10.82;;;6.28;;
69463;SDS011;56665;41.106;16.688;2022-08-11T14:31:19;7.97;;;6.47;;
69463;SDS011;56665;41.106;16.688;2022-08-11T14:34:25;9.07;;;6.30;;
69463;SDS011;56665;41.106;16.688;2022-08-11T14:37:32;8.80;;;6.15;;
69463;SDS011;56665;41.106;16.688;2022-08-11T14:40:36;7.73;;;6.20;;
69463;SDS011;56665;41.106;16.688;2022-08-11T14:43:58;8.65;;;6.00;;
69463;SDS011;56665;41.106;16.688;2022-08-11T14:47:21;8.25;;;6.13;;
69463;SDS011;56665;41.106;16.688;2022-08-11T14:50:27;11.15;;;5.72;;
69463;SDS011;56665;41.106;16.688;2022-08-11T14:53:34;10.43;;;5.53;;
69463;SDS011;56665;41.106;16.688;2022-08-11T14:56:36;7.17;;;5.30;;
69463;SDS011;56665;41.106;16.688;2022-08-11T14:59:41;10.27;;;5.35;;
69463;SDS011;56665;41.106;16.688;2022-08-11T15:02:48;9.13;;;5.20;;
69463;SDS011;56665;41.106;16.688;2022-08-11T15:06:18;11.65;;;6.07;;
69463;SDS011;56665;41.106;16.688;2022-08-11T15:09:23;8.75;;;5.30;;
69463;SDS011;56665;41.106;16.688;2022-08-11T15:12:28;10.47;;;5.17;;
69463;SDS011;56665;41.106;16.688;2022-08-11T15:15:32;6.35;;;5.57;;
69463;SDS011;56665;41.106;16.688;2022-08-11T15:18:55;9.98;;;6.30;;
69463;SDS011;56665;41.106;16.688;2022-08-11T15:22:01;8.80;;;6.22;;
69463;SDS011;56665;41.106;16.688;2022-08-11T15:25:23;7.22;;;5.60;;
69463;SDS011;56665;41.106;16.688;2022-08-11T15:28:29;9.30;;;5.70;;
69463;SDS011;56665;41.106;16.688;2022-08-11T15:31:53;8.93;;;5.63;;
69463;SDS011;56665;41.106;16.688;2022-08-11T15:35:36;9.32;;;5.65;;
69463;SDS011;56665;41.106;16.688;2022-08-11T15:39:02;9.40;;;5.28;;
69463;SDS011;56665;41.106;16.688;2022-08-11T15:42:12;7.45;;;5.22;;
69463;SDS011;56665;41.106;16.688;2022-08-11T15:45:38;8.53;;;5.03;;
69463;SDS011;56665;41.106;16.688;2022-08-11T15:48:58;5.88;;;4.60;;
69463;SDS011;56665;41.106;16.688;2022-08-11T15:52:06;6.57;;;4.00;;
69463;SDS011;56665;41.106;16.688;2022-08-11T15:55:13;6.82;;;3.90;;
69463;SDS011;56665;41.106;16.688;2022-08-11T15:58:19;6.25;;;4.60;;
69463;SDS011;56665;41.106;16.688;2022-08-11T16:01:43;8.37;;;4.37;;
69463;SDS011;56665;41.106;16.688;2022-08-11T16:05:09;6.32;;;4.20;;
69463;SDS011;56665;41.106;16.688;2022-08-11T16:08:19;7.70;;;4.43;;
69463;SDS011;56665;41.106;16.688;2022-08-11T16:11:26;7.95;;;4.63;;
69463;SDS011;56665;41.106;16.688;2022-08-11T16:14:32;9.98;;;4.78;;
69463;SDS011;56665;41.106;16.688;2022-08-11T16:17:59;6.63;;;4.37;;
69463;SDS011;56665;41.106;16.688;2022-08-11T16:21:13;7.38;;;5.13;;
69463;SDS011;56665;41.106;16.688;2022-08-11T16:24:21;7.63;;;4.93;;
69463;SDS011;56665;41.106;16.688;2022-08-11T16:27:25;9.43;;;4.93;;
69463;SDS011;56665;41.106;16.688;2022-08-11T16:30:33;8.63;;;5.10;;
69463;SDS011;56665;41.106;16.688;2022-08-11T16:33:40;6.83;;;4.90;;
69463;SDS011;56665;41.106;16.688;2022-08-11T16:36:45;8.38;;;4.70;;
69463;SDS011;56665;41.106;16.688;2022-08-11T16:40:09;10.57;;;4.90;;
69463;SDS011;56665;41.106;16.688;2022-08-11T16:43:14;9.02;;;4.53;;
69463;SDS011;56665;41.106;16.688;2022-08-11T16:46:39;6.50;;;4.50;;
69463;SDS011;56665;41.106;16.688;2022-08-11T16:50:04;6.93;;;4.73;;
69463;SDS011;56665;41.106;16.688;2022-08-11T16:53:10;10.10;;;4.60;;
69463;SDS011;56665;41.106;16.688;2022-08-11T16:56:14;7.28;;;4.72;;
69463;SDS011;56665;41.106;16.688;2022-08-11T16:59:32;7.47;;;4.85;;
69463;SDS011;56665;41.106;16.688;2022-08-11T17:02:46;9.88;;;4.53;;
69463;SDS011;56665;41.106;16.688;2022-08-11T17:06:11;8.33;;;4.73;;
69463;SDS011;56665;41.106;16.688;2022-08-11T17:09:35;6.53;;;4.32;;
69463;SDS011;56665;41.106;16.688;2022-08-11T17:13:01;7.30;;;4.35;;
69463;SDS011;56665;41.106;16.688;2022-08-11T17:16:14;7.20;;;5.07;;
69463;SDS011;56665;41.106;16.688;2022-08-11T17:19:24;6.47;;;4.82;;
69463;SDS011;56665;41.106;16.688;2022-08-11T17:22:32;7.73;;;4.87;;
69463;SDS011;56665;41.106;16.688;2022-08-11T17:25:58;7.78;;;4.35;;
69463;SDS011;56665;41.106;16.688;2022-08-11T17:29:02;6.78;;;4.55;;
69463;SDS011;56665;41.106;16.688;2022-08-11T17:32:10;6.93;;;4.60;;
69463;SDS011;56665;41.106;16.688;2022-08-11T17:35:40;7.47;;;5.20;;
69463;SDS011;56665;41.106;16.688;2022-08-11T17:38:46;6.63;;;4.90;;
69463;SDS011;56665;41.106;16.688;2022-08-11T17:41:53;7.15;;;4.68;;
69463;SDS011;56665;41.106;16.688;2022-08-11T17:45:17;7.82;;;5.10;;
69463;SDS011;56665;41.106;16.688;2022-08-11T17:48:42;12.43;;;9.50;;
69463;SDS011;56665;41.106;16.688;2022-08-11T17:51:48;9.90;;;6.68;;
69463;SDS011;56665;41.106;16.688;2022-08-11T17:55:12;6.97;;;4.83;;
69463;SDS011;56665;41.106;16.688;2022-08-11T17:58:37;7.22;;;4.80;;
69463;SDS011;56665;41.106;16.688;2022-08-11T18:02:02;7.82;;;4.72;;
69463;SDS011;56665;41.106;16.688;2022-08-11T18:05:35;6.88;;;4.57;;
69463;SDS011;56665;41.106;16.688;2022-08-11T18:08:42;7.97;;;5.32;;
69463;SDS011;56665;41.106;16.688;2022-08-11T18:12:06;6.93;;;5.33;;
69463;SDS011;56665;41.106;16.688;2022-08-11T18:15:30;7.85;;;4.50;;
69463;SDS011;56665;41.106;16.688;2022-08-11T18:18:53;11.82;;;5.47;;
69463;SDS011;56665;41.106;16.688;2022-08-11T18:22:23;7.13;;;5.25;;
69463;SDS011;56665;41.106;16.688;2022-08-11T18:25:47;7.18;;;5.18;;
69463;SDS011;56665;41.106;16.688;2022-08-11T18:29:13;15.20;;;10.50;;
69463;SDS011;56665;41.106;16.688;2022-08-11T18:32:42;11.18;;;8.32;;
69463;SDS011;56665;41.106;16.688;2022-08-11T18:36:16;14.48;;;9.55;;
69463;SDS011;56665;41.106;16.688;2022-08-11T18:39:44;9.82;;;6.40;;
69463;SDS011;56665;41.106;16.688;2022-08-11T18:43:10;10.10;;;6.40;;
69463;SDS011;56665;41.106;16.688;2022-08-11T18:46:38;7.23;;;5.77;;
69463;SDS011;56665;41.106;16.688;2022-08-11T18:50:05;9.50;;;5.63;;
69463;SDS011;56665;41.106;16.688;2022-08-11T18:53:30;9.05;;;5.18;;
69463;SDS011;56665;41.106;16.688;2022-08-11T18:56:56;8.10;;;5.13;;
69463;SDS011;56665;41.106;16.688;2022-08-11T19:00:22;7.72;;;5.22;;
69463;SDS011;56665;41.106;16.688;2022-08-11T19:03:48;7.80;;;5.70;;
69463;SDS011;56665;41.106;16.688;2022-08-11T19:07:12;7.03;;;5.38;;
69463;SDS011;56665;41.106;16.688;2022-08-11T19:10:35;8.07;;;5.97;;
69463;SDS011;56665;41.106;16.688;2022-08-11T19:13:57;8.90;;;5.65;;
69463;SDS011;56665;41.106;16.688;2022-08-11T19:17:25;9.13;;;5.65;;
69463;SDS011;56665;41.106;16.688;2022-08-11T19:20:49;8.60;;;5.50;;
69463;SDS011;56665;41.106;16.688;2022-08-11T19:24:13;9.85;;;6.07;;
69463;SDS011;56665;41.106;16.688;2022-08-11T19:27:38;10.43;;;5.80;;
69463;SDS011;56665;41.106;16.688;2022-08-11T19:31:01;10.02;;;5.82;;
69463;SDS011;56665;41.106;16.688;2022-08-11T19:34:25;8.13;;;5.63;;
69463;SDS011;56665;41.106;16.688;2022-08-11T19:37:48;8.77;;;5.37;;
69463;SDS011;56665;41.106;16.688;2022-08-11T19:41:10;9.50;;;5.75;;
69463;SDS011;56665;41.106;16.688;2022-08-11T19:44:35;7.03;;;5.28;;
69463;SDS011;56665;41.106;16.688;2022-08-11T19:47:58;7.93;;;5.70;;
69463;SDS011;56665;41.106;16.688;2022-08-11T19:51:20;9.95;;;5.70;;
69463;SDS011;56665;41.106;16.688;2022-08-11T19:54:43;7.20;;;4.90;;
69463;SDS011;56665;41.106;16.688;2022-08-11T19:58:06;8.43;;;4.85;;
69463;SDS011;56665;41.106;16.688;2022-08-11T20:01:28;7.93;;;5.70;;
69463;SDS011;56665;41.106;16.688;2022-08-11T20:04:50;9.45;;;5.40;;
69463;SDS011;56665;41.106;16.688;2022-08-11T20:08:13;7.75;;;4.78;;
69463;SDS011;56665;41.106;16.688;2022-08-11T20:11:36;8.63;;;4.57;;
69463;SDS011;56665;41.106;16.688;2022-08-11T20:15:05;5.88;;;4.30;;
69463;SDS011;56665;41.106;16.688;2022-08-11T20:18:29;8.50;;;4.85;;
69463;SDS011;56665;41.106;16.688;2022-08-11T20:21:53;10.52;;;7.10;;
69463;SDS011;56665;41.106;16.688;2022-08-11T20:25:18;8.18;;;5.60;;
69463;SDS011;56665;41.106;16.688;2022-08-11T20:28:43;10.00;;;6.23;;
69463;SDS011;56665;41.106;16.688;2022-08-11T20:32:06;8.40;;;6.28;;
69463;SDS011;56665;41.106;16.688;2022-08-11T20:35:28;11.25;;;5.95;;
69463;SDS011;56665;41.106;16.688;2022-08-11T20:38:55;6.50;;;3.95;;
69463;SDS011;56665;41.106;16.688;2022-08-11T20:42:19;7.05;;;4.40;;
69463;SDS011;56665;41.106;16.688;2022-08-11T20:45:43;9.40;;;3.87;;
69463;SDS011;56665;41.106;16.688;2022-08-11T20:49:07;7.22;;;4.25;;
69463;SDS011;56665;41.106;16.688;2022-08-11T20:52:30;6.18;;;4.32;;
69463;SDS011;56665;41.106;16.688;2022-08-11T20:55:53;6.10;;;3.90;;
69463;SDS011;56665;41.106;16.688;2022-08-11T20:59:19;6.35;;;4.00;;
69463;SDS011;56665;41.106;16.688;2022-08-11T21:02:43;7.93;;;3.80;;
69463;SDS011;56665;41.106;16.688;2022-08-11T21:06:06;6.32;;;4.10;;
69463;SDS011;56665;41.106;16.688;2022-08-11T21:09:32;5.38;;;4.18;;
69463;SDS011;56665;41.106;16.688;2022-08-11T21:12:57;9.02;;;4.20;;
69463;SDS011;56665;41.106;16.688;2022-08-11T21:16:29;6.50;;;3.90;;
69463;SDS011;56665;41.106;16.688;2022-08-11T21:19:55;5.67;;;4.10;;
69463;SDS011;56665;41.106;16.688;2022-08-11T21:23:22;9.80;;;5.65;;
69463;SDS011;56665;41.106;16.688;2022-08-11T21:26:45;6.88;;;4.85;;
69463;SDS011;56665;41.106;16.688;2022-08-11T21:30:10;6.55;;;4.65;;
69463;SDS011;56665;41.106;16.688;2022-08-11T21:33:32;6.85;;;4.43;;
69463;SDS011;56665;41.106;16.688;2022-08-11T21:36:56;7.33;;;4.83;;
69463;SDS011;56665;41.106;16.688;2022-08-11T21:40:21;6.70;;;4.60;;
69463;SDS011;56665;41.106;16.688;2022-08-11T21:43:48;8.60;;;4.75;;
69463;SDS011;56665;41.106;16.688;2022-08-11T21:47:11;6.57;;;4.57;;
69463;SDS011;56665;41.106;16.688;2022-08-11T21:50:35;5.72;;;4.05;;
69463;SDS011;56665;41.106;16.688;2022-08-11T21:53:57;6.20;;;4.07;;
69463;SDS011;56665;41.106;16.688;2022-08-11T21:57:21;6.60;;;4.47;;
69463;SDS011;56665;41.106;16.688;2022-08-11T22:00:44;6.53;;;4.63;;
69463;SDS011;56665;41.106;16.688;2022-08-11T22:04:07;7.80;;;4.70;;
69463;SDS011;56665;41.106;16.688;2022-08-11T22:07:30;6.65;;;4.53;;
69463;SDS011;56665;41.106;16.688;2022-08-11T22:10:53;5.97;;;4.57;;
69463;SDS011;56665;41.106;16.688;2022-08-11T22:14:17;7.22;;;4.85;;
69463;SDS011;56665;41.106;16.688;2022-08-11T22:17:39;6.53;;;4.97;;
69463;SDS011;56665;41.106;16.688;2022-08-11T22:21:01;6.88;;;5.10;;
69463;SDS011;56665;41.106;16.688;2022-08-11T22:24:24;8.57;;;5.30;;
69463;SDS011;56665;41.106;16.688;2022-08-11T22:27:48;7.63;;;4.90;;
69463;SDS011;56665;41.106;16.688;2022-08-11T22:31:10;7.85;;;5.22;;